EW9435 Weather Reports


Display with metric or nautical units.
time (UTC)temp
F
wind
direction
speed
MPH
gust
MPH
rain 1hr
in
rain 24hr
in
rain mn
in
humidity
%
barometer
mb
20181119183538 32 90 3.0 6.0 0.00 0.00 0.00 67 1014.1
20181119182535 32 90 3.0 6.0 0.00 0.00 0.00 66 1014.2
20181119181532 32 68 2.0 6.0 0.00 0.00 0.00 65 1014.1
20181119180528 32 90 2.0 6.0 0.00 0.00 0.00 64 1014.1
20181119175525 33 90 5.0 9.0 0.00 0.00 0.00 64 1014.1
20181119174521 33 90 7.0 11.0 0.00 0.00 0.00 64 1014.0
20181119173518 33 76 6.0 10.0 0.00 0.00 0.00 64 1014.1
20181119172515 33 90 8.0 12.0 0.00 0.00 0.00 64 1014.0
20181119171612 33 90 6.0 12.0 0.00 0.00 0.00 63 1014.0
20181119170609 34 90 5.0 7.0 0.00 0.00 0.00 63 1014.0
20181119165605 34 86 5.0 9.0 0.00 0.00 0.00 63 1014.0
20181119164602 34 84 5.0 9.0 0.00 0.00 0.00 64 1014.0
20181119163558 34 90 3.0 7.0 0.00 0.00 0.00 64 1014.1
20181119162555 34 78 2.0 4.0 0.00 0.00 0.00 64 1014.1
20181119161552 34 90 2.0 6.0 0.00 0.00 0.00 64 1014.2
20181119160548 34 82 2.0 6.0 0.00 0.00 0.00 64 1014.1
20181119155545 34 73 2.0 5.0 0.00 0.00 0.00 64 1014.0
20181119154545 34 72 4.0 7.0 0.00 0.00 0.00 64 1013.9
20181119153538 35 76 3.0 8.0 0.00 0.00 0.00 64 1013.8
20181119152535 35 90 4.0 7.0 0.00 0.00 0.00 64 1013.9
20181119151601 35 87 3.0 7.0 0.00 0.00 0.00 63 1013.9
20181119150557 35 90 2.0 3.0 0.00 0.00 0.00 63 1013.8
20181119145554 35 98 6.0 10.0 0.00 0.00 0.00 63 1013.7
20181119144550 35 109 3.0 9.0 0.00 0.00 0.00 62 1013.8
20181119143546 35 90 6.0 9.0 0.00 0.00 0.00 62 1013.8
20181119142543 35 65 5.0 11.0 0.00 0.00 0.00 62 1013.9
20181119141539 35 74 5.0 11.0 0.00 0.00 0.00 61 1013.9
20181119140536 35 97 6.0 12.0 0.00 0.00 0.00 62 1013.8
20181119135534 35 90 5.0 9.0 0.00 0.00 0.00 62 1013.8
20181119134558 35 96 8.0 14.0 0.00 0.00 0.00 63 1013.8
20181119133555 35 82 5.0 9.0 0.00 0.00 0.00 64 1013.8
20181119132552 35 71 6.0 9.0 0.00 0.00 0.00 65 1013.7
20181119131549 35 90 6.0 9.0 0.00 0.00 0.00 66 1013.7
20181119130545 35 78 4.0 9.0 0.00 0.00 0.00 67 1013.8
20181119125542 35 99 4.0 8.0 0.00 0.00 0.00 66 1013.8
20181119124539 35 96 4.0 9.0 0.00 0.00 0.00 66 1013.9
20181119123536 35 106 5.0 9.0 0.00 0.00 0.00 66 1014.0
20181119122532 35 88 4.0 9.0 0.00 0.00 0.00 66 1014.0
20181119121529 35 90 4.0 9.0 0.00 0.00 0.00 66 1014.0
20181119120525 35 82 2.0 6.0 0.00 0.00 0.00 65 1014.1
20181119115524 35 90 3.0 6.0 0.00 0.00 0.00 65 1014.2
20181119114519 35 90 4.0 12.0 0.00 0.00 0.00 64 1014.2
20181119113515 35 114 5.0 9.0 0.00 0.00 0.00 63 1014.2
20181119112612 35 71 5.0 9.0 0.00 0.00 0.00 63 1014.2
20181119111609 35 103 7.0 12.0 0.00 0.00 0.00 64 1014.3
20181119110606 35 101 6.0 15.0 0.00 0.00 0.00 68 1014.3
20181119105557 35 98 4.0 9.0 0.00 0.00 0.00 69 1014.4
20181119104553 35 80 3.0 8.0 0.00 0.00 0.00 69 1014.5
20181119103544 35 86 8.0 12.0 0.00 0.00 0.00 71 1014.5
20181119102541 35 90 9.0 15.0 0.00 0.00 0.00 73 1014.6
20181119101533 35 85 8.0 14.0 0.00 0.00 0.00 78 1014.7
20181119100529 35 74 2.0 6.0 0.00 0.00 0.00 79 1014.8
20181119095610 35 96 2.0 7.0 0.00 0.00 0.00 79 1014.8
20181119094608 34 90 1.0 4.0 0.00 0.00 0.00 80 1014.9
20181119093559 34 72 3.0 6.0 0.00 0.00 0.00 79 1014.9
20181119092555 34 67 3.0 6.0 0.00 0.00 0.00 79 1014.9
20181119091545 34 82 2.0 7.0 0.00 0.00 0.00 80 1014.9
20181119090542 34 64 2.0 6.0 0.00 0.00 0.00 80 1014.9
20181119085536 34 96 4.0 7.0 0.00 0.00 0.00 81 1014.9
20181119084530 33 108 1.0 3.0 0.00 0.00 0.00 82 1014.9
20181119083517 33 71 2.0 5.0 0.00 0.00 0.00 82 1014.9
20181119082608 33 79 1.0 3.0 0.00 0.00 0.00 83 1014.8
20181119081605 33 73 1.0 4.0 0.00 0.00 0.00 82 1014.9
20181119080555 32 50 2.0 6.0 0.00 0.00 0.00 82 1015.0
20181119075546 32 76 0.0 3.0 0.00 0.00 0.00 82 1015.0
20181119074545 32 57 1.0 4.0 0.00 0.00 0.00 81 1015.0
20181119073533 32 85 3.0 6.0 0.00 0.00 0.00 81 1015.0
20181119072518 32 63 0.0 3.0 0.00 0.00 0.00 80 1015.0
20181119071609 32 0.0 1.0 0.00 0.00 0.00 80 1015.0
20181119070605 32 0.0 1.0 0.00 0.00 0.00 80 1015.0
20181119065557 32 61 0.0 3.0 0.00 0.00 0.00 79 1015.1
20181119064553 32 90 0.0 2.0 0.00 0.00 0.00 79 1015.1
20181119063544 32 71 1.0 4.0 0.00 0.00 0.00 78 1015.1
20181119062541 32 75 2.0 8.0 0.00 0.00 0.00 77 1015.1
20181119061531 32 84 0.0 3.0 0.00 0.00 0.00 76 1015.1
20181119060518 32 45 2.0 6.0 0.00 0.00 0.00 74 1015.1
20181119055609 32 78 3.0 8.0 0.00 0.00 0.00 73 1015.1
20181119054606 32 78 1.0 3.0 0.00 0.00 0.00 72 1015.2
20181119053557 32 55 2.0 5.0 0.00 0.00 0.00 70 1015.1
20181119052553 31 85 1.0 5.0 0.00 0.00 0.00 70 1015.1
20181119051544 31 45 0.0 2.0 0.00 0.00 0.00 69 1015.1
20181119050541 31 0.0 0.0 0.00 0.00 0.00 69 1015.1
20181119045531 31 0.0 0.0 0.00 0.00 0.00 69 1015.1
20181119044557 31 0 0.0 2.0 0.00 0.00 0.00 69 1015.1
20181119043554 31 21 1.0 3.0 0.00 0.00 0.00 69 1015.2
20181119042545 31 80 1.0 4.0 0.00 0.00 0.00 69 1015.3
20181119041541 31 79 3.0 6.0 0.00 0.00 0.00 68 1015.4
20181119040532 31 93 1.0 5.0 0.00 0.00 0.00 65 1015.4
20181119035529 30 54 2.0 8.0 0.00 0.00 0.00 63 1015.5
20181119034616 29 0.0 0.0 0.00 0.00 0.00 62 1015.6
20181119033607 29 45 1.0 5.0 0.00 0.00 0.00 59 1015.7
20181119032559 29 315 0.0 2.0 0.00 0.00 0.00 56 1015.8
20181119031555 29 270 0.0 1.0 0.00 0.00 0.00 54 1015.7
20181119030546 28 0.0 0.0 0.00 0.00 0.00 54 1015.8
20181119025543 28 0.0 0.0 0.00 0.00 0.00 53 1016.0
20181119024534 29 0.0 0.0 0.00 0.00 0.00 53 1016.1
20181119023530 29 0.0 0.0 0.00 0.00 0.00 53 1016.2
20181119022517 29 0.0 0.0 0.00 0.00 0.00 53 1016.4
20181119021608 28 0.0 0.0 0.00 0.00 0.00 52 1016.4
20181119020605 28 0.0 0.0 0.00 0.00 0.00 52 1016.5
20181119015557 28 0.0 0.0 0.00 0.00 0.00 50 1016.6
20181119014553 28 0.0 0.0 0.00 0.00 0.00 49 1016.6
20181119013544 28 0.0 0.0 0.00 0.00 0.00 47 1016.9
20181119012541 29 0.0 0.0 0.00 0.00 0.00 47 1016.9
20181119011531 29 0.0 0.0 0.00 0.00 0.00 47 1017.0
20181119010517 29 0.0 0.0 0.00 0.00 0.00 47 1017.1
20181119005609 29 0.0 0.0 0.00 0.00 0.00 47 1017.1
20181119004606 29 0.0 0.0 0.00 0.00 0.00 48 1017.1
20181119003557 29 0.0 1.0 0.00 0.00 0.00 47 1017.1
20181119002553 29 0.0 0.0 0.00 0.00 0.00 47 1017.3
20181119001544 29 0.0 0.0 0.00 0.00 0.00 46 1017.4
20181119000541 29 0.0 0.0 0.00 0.00 0.00 46 1017.5
20181118235532 29 0.0 0.0 0.00 0.00 0.00 46 1017.6
20181118234528 29 270 0.0 1.0 0.00 0.00 0.00 47 1017.7
20181118233610 30 0.0 0.0 0.00 0.00 0.00 48 1017.9
20181118232607 30 0.0 0.0 0.00 0.00 0.00 45 1018.1
20181118231558 30 0.0 0.0 0.00 0.00 0.00 44 1018.3
20181118230555 30 0.0 0.0 0.00 0.00 0.00 45 1018.3
20181118225546 30 0.0 0.0 0.00 0.00 0.00 44 1018.5
20181118224542 29 0.0 0.0 0.00 0.00 0.00 45 1018.8
20181118223535 29 0.0 0.0 0.00 0.00 0.00 45 1018.9
20181118222530 28 0 0.0 1.0 0.00 0.00 0.00 48 1019.1
20181118221517 28 0 0.0 2.0 0.00 0.00 0.00 52 1019.1
20181118220608 28 0 0.0 1.0 0.00 0.00 0.00 54 1019.2
20181118215606 28 45 0.0 2.0 0.00 0.00 0.00 55 1019.2
20181118214556 28 0.0 0.0 0.00 0.00 0.00 55 1019.3
20181118213552 28 0 0.0 1.0 0.00 0.00 0.00 55 1019.3
20181118212544 29 0.0 0.0 0.00 0.00 0.00 56 1019.5
20181118211534 29 0.0 0.0 0.00 0.00 0.00 57 1019.6
20181118210531 29 0.0 0.0 0.00 0.00 0.00 59 1019.7
20181118205524 29 45 0.0 1.0 0.00 0.00 0.00 60 1019.9
20181118204609 29 0 0.0 3.0 0.00 0.00 0.00 62 1020.0
20181118203606 29 0.0 0.0 0.00 0.00 0.00 61 1020.2
20181118202556 29 0.0 0.0 0.00 0.00 0.00 60 1020.1
20181118201553 30 0.0 0.0 0.00 0.00 0.00 58 1020.0
20181118200544 30 0.0 0.0 0.00 0.00 0.00 57 1020.0
20181118195535 31 0.0 1.0 0.00 0.00 0.00 55 1020.0
20181118194531 32 0.0 0.0 0.00 0.00 0.00 54 1020.0
20181118193525 33 0.0 0.0 0.00 0.00 0.00 53 1020.1
20181118192610 33 0.0 0.0 0.00 0.00 0.00 52 1020.2
20181118191606 34 0.0 0.0 0.00 0.00 0.00 52 1020.3
20181118190558 34 0.0 0.0 0.00 0.00 0.00 52 1020.3
20181118185555 34 0.0 0.0 0.00 0.00 0.00 53 1020.4
20181118184549 35 0.0 0.0 0.00 0.00 0.00 52 1020.5